createdAt,value
2017-10-18T00:00:46.315Z,31.57
2017-10-18T00:02:49.018Z,45.33
2017-10-18T00:04:51.685Z,37.03
2017-10-18T00:06:54.355Z,43.77
2017-10-18T00:08:57.016Z,35.27
2017-10-18T00:10:59.677Z,40.17
2017-10-18T00:13:03.143Z,30.60
2017-10-18T00:15:05.815Z,39.40
2017-10-18T00:17:08.502Z,38.90
2017-10-18T00:19:11.917Z,36.13
2017-10-18T00:21:15.437Z,33.20
2017-10-18T00:23:18.213Z,37.60
2017-10-18T00:25:20.889Z,37.87
2017-10-18T00:27:23.539Z,31.80
2017-10-18T00:29:26.992Z,42.97
2017-10-18T00:31:29.695Z,33.00
2017-10-18T00:33:33.176Z,34.27
2017-10-18T00:35:35.873Z,37.77
2017-10-18T00:37:39.405Z,51.20
2017-10-18T00:39:42.085Z,39.90
2017-10-18T00:41:44.792Z,35.10
2017-10-18T00:43:47.454Z,33.80
2017-10-18T00:45:50.251Z,32.77
2017-10-18T00:47:53.048Z,36.17
2017-10-18T00:49:55.696Z,43.60
2017-10-18T00:51:58.444Z,37.97
2017-10-18T00:54:01.255Z,46.80
2017-10-18T00:56:03.921Z,36.90
2017-10-18T00:58:06.594Z,42.47
2017-10-18T01:00:09.278Z,39.73
2017-10-18T01:02:12.031Z,33.90
2017-10-18T01:04:14.809Z,35.40
2017-10-18T01:06:17.505Z,36.23
2017-10-18T01:08:20.262Z,29.63
2017-10-18T01:10:24.020Z,30.37
2017-10-18T01:12:27.496Z,30.93
2017-10-18T01:14:30.221Z,31.50
2017-10-18T01:16:32.910Z,27.10
2017-10-18T01:18:35.606Z,39.97
2017-10-18T01:20:38.272Z,36.17
2017-10-18T01:22:40.940Z,25.37
2017-10-18T01:24:43.631Z,35.43
2017-10-18T01:26:46.285Z,32.70
2017-10-18T01:28:48.950Z,32.30
2017-10-18T01:30:51.657Z,31.00
2017-10-18T01:32:54.318Z,50.73
2017-10-18T01:34:56.995Z,25.57
2017-10-18T01:36:59.676Z,26.93
2017-10-18T01:39:02.344Z,36.40
2017-10-18T01:41:05.012Z,32.07
2017-10-18T01:43:07.710Z,29.80
2017-10-18T01:45:10.358Z,23.70
2017-10-18T01:47:13.784Z,34.40
2017-10-18T01:49:16.468Z,36.20
2017-10-18T01:51:19.127Z,40.77
2017-10-18T01:53:21.798Z,51.30
2017-10-18T01:55:24.485Z,50.03
2017-10-18T01:57:27.153Z,69.13
2017-10-18T01:59:29.835Z,70.20
2017-10-18T02:01:32.512Z,52.00
2017-10-18T02:03:35.291Z,46.07
2017-10-18T02:05:38.060Z,52.33
2017-10-18T02:07:40.839Z,61.37
2017-10-18T02:09:43.503Z,47.53
2017-10-18T02:11:46.176Z,41.93
2017-10-18T02:13:49.072Z,48.33
2017-10-18T02:15:51.750Z,43.27
2017-10-18T02:17:54.428Z,55.27
2017-10-18T02:19:57.250Z,62.23
2017-10-18T02:22:00.718Z,48.73
2017-10-18T02:24:03.405Z,51.50
2017-10-18T02:26:06.155Z,60.40
2017-10-18T02:28:08.829Z,67.47
2017-10-18T02:30:11.486Z,54.50
2017-10-18T02:32:14.318Z,61.27
2017-10-18T02:34:16.983Z,72.73
2017-10-18T02:36:19.691Z,71.43
2017-10-18T02:38:22.369Z,68.97
2017-10-18T02:40:25.808Z,66.07
2017-10-18T02:42:28.687Z,65.27
2017-10-18T02:44:31.364Z,76.20
2017-10-18T02:46:34.014Z,69.53
2017-10-18T02:48:37.573Z,80.70
2017-10-18T02:50:40.237Z,84.80
2017-10-18T02:52:42.885Z,101.83
2017-10-18T02:54:45.666Z,101.63
2017-10-18T02:56:48.342Z,81.90
2017-10-18T02:58:51.025Z,87.30
2017-10-18T03:00:53.702Z,105.37
2017-10-18T03:02:56.358Z,108.03
2017-10-18T03:04:59.009Z,146.07
2017-10-18T03:07:02.546Z,108.33
2017-10-18T03:09:05.325Z,104.07
2017-10-18T03:11:07.996Z,117.37
2017-10-18T03:13:10.696Z,98.43
2017-10-18T03:15:13.372Z,113.37
2017-10-18T03:17:16.035Z,96.97
2017-10-18T03:19:18.729Z,89.37
2017-10-18T03:21:21.401Z,92.40
2017-10-18T03:23:24.100Z,88.63
2017-10-18T03:25:26.838Z,105.47
2017-10-18T03:27:29.583Z,105.80
2017-10-18T03:29:33.102Z,98.43
2017-10-18T03:31:35.843Z,95.50
2017-10-18T03:33:39.173Z,87.00
2017-10-18T03:35:41.906Z,71.43
2017-10-18T03:37:44.739Z,65.87
2017-10-18T03:39:47.424Z,68.03
2017-10-18T03:41:50.083Z,71.50
2017-10-18T03:43:52.772Z,68.10
2017-10-18T03:45:55.445Z,73.47
2017-10-18T03:47:58.113Z,68.20
2017-10-18T03:50:00.801Z,69.97
2017-10-18T03:52:03.454Z,64.13
2017-10-18T03:54:06.136Z,72.80
2017-10-18T03:56:08.830Z,100.87
2017-10-18T03:58:11.498Z,97.30
2017-10-18T04:00:14.179Z,157.90
2017-10-18T04:02:16.955Z,164.77
2017-10-18T04:04:19.615Z,164.83
2017-10-18T04:06:22.327Z,194.17
2017-10-18T04:08:25.019Z,169.50
2017-10-18T04:10:27.672Z,157.60
2017-10-18T04:12:30.328Z,127.43
2017-10-18T04:14:33.133Z,173.67
2017-10-18T04:16:35.895Z,243.17
2017-10-18T04:18:38.571Z,199.37
2017-10-18T04:20:41.283Z,407.90
2017-10-18T04:22:43.960Z,446.57
2017-10-18T04:24:46.635Z,261.23
2017-10-18T04:26:49.372Z,343.83
2017-10-18T04:28:52.026Z,310.90
2017-10-18T04:30:54.753Z,534.80
2017-10-18T04:32:57.449Z,575.33
2017-10-18T04:35:00.115Z,339.27
2017-10-18T04:37:02.823Z,451.63
2017-10-18T04:39:05.554Z,675.00
2017-10-18T04:41:08.208Z,316.53
2017-10-18T04:43:10.888Z,688.00
2017-10-18T04:45:13.605Z,829.00
2017-10-18T04:47:16.333Z,283.53
2017-10-18T04:49:19.043Z,700.23
2017-10-18T04:51:21.724Z,651.37
2017-10-18T04:53:25.154Z,577.53
2017-10-18T04:55:28.623Z,462.47
2017-10-18T04:57:31.285Z,633.10
2017-10-18T04:59:33.968Z,607.80
2017-10-18T05:01:36.667Z,584.17
2017-10-18T05:03:39.407Z,512.60
2017-10-18T05:05:42.103Z,584.90
2017-10-18T05:07:44.849Z,535.77
2017-10-18T05:09:48.298Z,318.60
2017-10-18T05:11:51.739Z,616.50
2017-10-18T05:13:54.457Z,442.73
2017-10-18T05:15:57.353Z,652.70
2017-10-18T05:18:01.587Z,576.90
2017-10-18T05:20:04.345Z,354.60
2017-10-18T05:22:08.269Z,590.07
2017-10-18T05:24:11.009Z,426.80
2017-10-18T05:26:13.707Z,710.67
2017-10-18T05:28:17.133Z,349.00
2017-10-18T05:30:19.828Z,699.97
2017-10-18T05:32:22.485Z,493.80
2017-10-18T05:34:26.601Z,531.33
2017-10-18T05:36:29.574Z,563.07
2017-10-18T05:38:32.243Z,808.23
2017-10-18T05:40:37.422Z,671.07
2017-10-18T05:42:40.199Z,579.57
2017-10-18T05:44:42.871Z,428.70
2017-10-18T05:46:45.520Z,825.87
2017-10-18T05:48:48.205Z,836.43
2017-10-18T05:50:50.881Z,721.40
2017-10-18T05:52:53.596Z,473.27
2017-10-18T05:54:56.280Z,746.23
2017-10-18T05:56:58.946Z,724.17
2017-10-18T05:59:08.240Z,489.83
2017-10-18T06:01:11.011Z,525.57
2017-10-18T06:03:13.665Z,692.70
2017-10-18T06:05:16.349Z,512.83
2017-10-18T06:07:19.026Z,835.23
2017-10-18T06:09:21.669Z,528.57
2017-10-18T06:11:24.346Z,798.90
2017-10-18T06:13:27.013Z,750.27
2017-10-18T06:15:29.657Z,529.17
2017-10-18T06:17:32.345Z,622.70
2017-10-18T06:19:35.087Z,551.03
2017-10-18T06:21:37.765Z,617.47
2017-10-18T06:23:40.485Z,753.57
2017-10-18T06:25:43.167Z,476.43
2017-10-18T06:27:45.846Z,507.67
2017-10-18T06:29:48.527Z,598.03
2017-10-18T06:31:51.211Z,907.90
2017-10-18T06:33:54.653Z,566.60
2017-10-18T06:35:57.375Z,627.70
2017-10-18T06:38:00.051Z,532.67
2017-10-18T06:40:02.729Z,451.73
2017-10-18T06:42:06.173Z,775.43
2017-10-18T06:44:08.988Z,850.87
2017-10-18T06:46:11.681Z,449.47
2017-10-18T06:48:14.406Z,703.23
2017-10-18T06:50:17.209Z,340.77
2017-10-18T06:52:19.947Z,378.87
2017-10-18T06:54:22.644Z,549.83
2017-10-18T06:56:25.300Z,377.63
2017-10-18T06:58:27.981Z,458.67
2017-10-18T07:00:30.670Z,439.33
2017-10-18T07:02:33.352Z,404.10
2017-10-18T07:04:36.025Z,369.73
2017-10-18T07:06:38.786Z,277.80
2017-10-18T07:08:41.469Z,358.63
2017-10-18T07:10:44.138Z,336.10
2017-10-18T07:12:46.827Z,225.17
2017-10-18T07:14:49.495Z,510.47
2017-10-18T07:16:52.179Z,270.67
2017-10-18T07:18:54.831Z,260.53
2017-10-18T07:20:57.505Z,578.23
2017-10-18T07:23:00.962Z,415.10
2017-10-18T07:25:03.700Z,334.73
2017-10-18T07:27:06.371Z,230.50
2017-10-18T07:29:09.067Z,281.73
2017-10-18T07:31:11.887Z,237.53
2017-10-18T07:33:15.434Z,403.20
2017-10-18T07:35:18.135Z,215.77
2017-10-18T07:37:20.808Z,427.20
2017-10-18T07:39:23.480Z,120.83
2017-10-18T07:41:26.234Z,142.27
2017-10-18T07:43:28.906Z,101.80
2017-10-18T07:45:31.575Z,121.33
2017-10-18T07:47:34.246Z,203.10
2017-10-18T07:49:36.913Z,91.37
2017-10-18T07:51:40.351Z,82.77
2017-10-18T07:53:43.111Z,119.03
2017-10-18T07:55:45.773Z,111.47
2017-10-18T07:57:48.492Z,89.97
2017-10-18T07:59:51.198Z,51.77
2017-10-18T08:01:53.854Z,51.73
2017-10-18T08:03:56.572Z,71.57
2017-10-18T08:06:00.000Z,47.10
2017-10-18T08:08:03.704Z,45.60
2017-10-18T08:10:06.408Z,51.57
2017-10-18T08:12:09.087Z,38.10
2017-10-18T08:14:11.785Z,45.20
2017-10-18T08:16:15.250Z,52.77
2017-10-18T08:18:17.952Z,82.23
2017-10-18T08:20:21.390Z,48.97
2017-10-18T08:22:24.092Z,43.17
2017-10-18T08:24:26.759Z,47.70
2017-10-18T08:26:29.449Z,113.50
2017-10-18T08:28:32.243Z,88.77
2017-10-18T08:30:34.887Z,80.10
2017-10-18T08:32:37.582Z,50.47
2017-10-18T08:34:40.292Z,47.03
2017-10-18T08:36:43.812Z,52.73
2017-10-18T08:38:46.591Z,46.40
2017-10-18T08:40:49.313Z,46.30
2017-10-18T08:42:51.985Z,57.60
2017-10-18T08:44:54.661Z,53.77
2017-10-18T08:46:57.384Z,53.03
2017-10-18T08:49:00.069Z,46.60
2017-10-18T08:51:02.754Z,51.07
2017-10-18T08:53:05.462Z,53.50
2017-10-18T08:55:08.110Z,44.00
2017-10-18T08:57:10.776Z,51.37
2017-10-18T08:59:13.461Z,64.20
2017-10-18T09:01:16.237Z,51.90
2017-10-18T09:03:18.939Z,64.10
2017-10-18T09:05:21.626Z,54.10
2017-10-18T09:07:24.277Z,51.70
2017-10-18T09:09:26.925Z,52.13
2017-10-18T09:11:29.625Z,53.17
2017-10-18T09:13:32.277Z,53.63
2017-10-18T09:15:34.975Z,66.73
2017-10-18T09:17:37.676Z,52.13
2017-10-18T09:19:40.343Z,44.97
2017-10-18T09:21:43.096Z,45.00
2017-10-18T09:23:45.789Z,50.33
2017-10-18T09:25:48.429Z,43.20
2017-10-18T09:27:51.844Z,49.27
2017-10-18T09:29:54.534Z,51.27
2017-10-18T09:31:57.202Z,50.40
2017-10-18T09:33:59.974Z,41.37
2017-10-18T09:36:02.751Z,51.50
2017-10-18T09:38:05.427Z,44.27
2017-10-18T09:40:08.118Z,48.97
2017-10-18T09:42:10.764Z,50.00
2017-10-18T09:44:13.441Z,49.20
2017-10-18T09:46:16.139Z,47.50
2017-10-18T09:48:18.808Z,52.80
2017-10-18T09:50:21.495Z,42.77
2017-10-18T09:52:24.142Z,44.30
2017-10-18T09:54:26.841Z,43.10
2017-10-18T09:56:29.539Z,40.70
2017-10-18T09:58:32.193Z,42.40
2017-10-18T10:00:34.849Z,38.67
2017-10-18T10:02:37.523Z,41.50
2017-10-18T10:04:40.188Z,36.97
2017-10-18T10:06:43.637Z,44.10
2017-10-18T10:08:46.388Z,36.67
2017-10-18T10:10:49.049Z,33.67
2017-10-18T10:12:51.705Z,34.60
2017-10-18T10:14:55.151Z,41.07
2017-10-18T10:16:57.836Z,34.53
2017-10-18T10:19:00.500Z,37.90
2017-10-18T10:21:03.195Z,32.50
2017-10-18T10:23:05.846Z,29.30
2017-10-18T10:25:08.510Z,28.87
2017-10-18T10:27:11.188Z,30.83
2017-10-18T10:29:13.842Z,32.63
2017-10-18T10:31:17.285Z,30.10
2017-10-18T10:33:19.972Z,35.60
2017-10-18T10:35:22.659Z,27.93
2017-10-18T10:37:25.334Z,28.93
2017-10-18T10:39:28.682Z,29.83
2017-10-18T10:41:31.704Z,27.30
2017-10-18T10:43:34.441Z,29.57
2017-10-18T10:45:37.119Z,30.00
2017-10-18T10:47:39.777Z,30.43
2017-10-18T10:49:42.455Z,29.60
2017-10-18T10:51:45.129Z,33.43
2017-10-18T10:53:47.794Z,34.13
2017-10-18T10:55:51.211Z,43.03
2017-10-18T10:57:53.993Z,36.20
2017-10-18T10:59:56.653Z,40.77
2017-10-18T11:01:59.305Z,35.97
2017-10-18T11:04:02.755Z,36.20
2017-10-18T11:06:05.433Z,35.90
2017-10-18T11:08:08.101Z,40.93
2017-10-18T11:10:10.803Z,41.50
2017-10-18T11:12:13.457Z,39.43
2017-10-18T11:14:16.108Z,35.83
2017-10-18T11:16:18.791Z,37.10
2017-10-18T11:18:21.483Z,41.67
2017-10-18T11:20:24.147Z,37.80
2017-10-18T11:22:26.840Z,48.13
2017-10-18T11:24:29.498Z,38.20
2017-10-18T11:26:32.193Z,36.50
2017-10-18T11:28:34.864Z,38.50
2017-10-18T11:30:37.523Z,36.47
2017-10-18T11:32:40.212Z,47.47
2017-10-18T11:34:42.888Z,37.03
2017-10-18T11:36:45.533Z,38.53
2017-10-18T11:38:49.009Z,40.47
2017-10-18T11:40:52.444Z,37.50
2017-10-18T11:42:55.147Z,35.20
2017-10-18T11:44:57.814Z,37.70
2017-10-18T11:47:00.471Z,36.00
2017-10-18T11:49:03.147Z,40.90
2017-10-18T11:51:05.852Z,41.87
2017-10-18T11:53:08.543Z,34.90
2017-10-18T11:55:11.185Z,42.83
2017-10-18T11:57:13.890Z,36.23
2017-10-18T11:59:16.573Z,43.53
2017-10-18T12:01:19.238Z,38.30
2017-10-18T12:03:21.929Z,36.17
2017-10-18T12:05:24.665Z,35.90
2017-10-18T12:07:27.333Z,29.17
2017-10-18T12:09:30.023Z,23.50
2017-10-18T12:11:32.995Z,22.23
2017-10-18T12:13:35.675Z,22.23
2017-10-18T12:15:38.352Z,23.70
2017-10-18T12:17:41.011Z,25.77
2017-10-18T12:19:43.673Z,23.73
2017-10-18T12:21:47.136Z,21.73
2017-10-18T12:23:49.842Z,22.10
2017-10-18T12:25:52.526Z,28.40
2017-10-18T12:27:55.972Z,23.60
2017-10-18T12:29:58.716Z,25.57
2017-10-18T12:32:01.387Z,25.03
2017-10-18T12:34:04.083Z,26.93
2017-10-18T12:36:06.774Z,24.87
2017-10-18T12:38:09.424Z,26.30
2017-10-18T12:40:12.247Z,21.87
2017-10-18T12:42:14.904Z,22.13
2017-10-18T12:44:17.621Z,21.67
2017-10-18T12:46:21.030Z,25.13
2017-10-18T12:48:23.674Z,26.53
2017-10-18T12:50:26.374Z,23.23
2017-10-18T12:52:29.876Z,23.30
2017-10-18T12:54:33.308Z,21.83
2017-10-18T12:56:35.990Z,20.63
2017-10-18T12:58:38.644Z,16.90
2017-10-18T13:00:41.323Z,23.87
2017-10-18T13:02:44.018Z,23.90
2017-10-18T13:04:46.692Z,20.00
2017-10-18T13:06:49.342Z,20.00
2017-10-18T13:08:52.017Z,20.03
2017-10-18T13:10:54.697Z,23.00
2017-10-18T13:12:57.364Z,26.17
2017-10-18T13:15:00.059Z,22.80
2017-10-18T13:17:02.728Z,23.60
2017-10-18T13:19:05.377Z,23.70
2017-10-18T13:21:08.835Z,24.73
2017-10-18T13:23:11.504Z,23.90
2017-10-18T13:25:14.169Z,27.53
2017-10-18T13:27:16.850Z,20.07
2017-10-18T13:29:19.521Z,22.33
2017-10-18T13:31:22.201Z,18.53
2017-10-18T13:33:24.885Z,17.63
2017-10-18T13:35:27.533Z,19.00
2017-10-18T13:37:30.186Z,20.67
2017-10-18T13:39:32.856Z,23.20
2017-10-18T13:41:36.272Z,26.23
2017-10-18T13:43:39.007Z,23.40
2017-10-18T13:45:41.680Z,21.43
2017-10-18T13:47:44.405Z,29.13
2017-10-18T13:49:47.052Z,17.93
2017-10-18T13:51:50.578Z,30.47
2017-10-18T13:53:53.246Z,22.77
2017-10-18T13:55:55.919Z,25.10
2017-10-18T13:57:58.602Z,19.40
2017-10-18T14:00:01.281Z,19.10
2017-10-18T14:02:03.956Z,21.17
2017-10-18T14:04:06.627Z,26.47
2017-10-18T14:06:09.417Z,24.17
2017-10-18T14:08:12.077Z,19.20
2017-10-18T14:10:14.753Z,22.33
2017-10-18T14:12:17.455Z,20.80
2017-10-18T14:14:20.223Z,22.97
2017-10-18T14:16:22.908Z,24.03
2017-10-18T14:18:25.600Z,20.60
2017-10-18T14:20:28.276Z,21.10
2017-10-18T14:22:30.988Z,15.90
2017-10-18T14:24:34.513Z,13.87
2017-10-18T14:26:37.171Z,15.53
2017-10-18T14:28:40.626Z,16.67
2017-10-18T14:30:43.308Z,19.30
2017-10-18T14:32:46.044Z,18.17
2017-10-18T14:34:48.726Z,15.47
2017-10-18T14:36:51.400Z,18.73
2017-10-18T14:38:54.060Z,16.73
2017-10-18T14:40:56.744Z,15.37
2017-10-18T14:42:59.394Z,19.73
2017-10-18T14:45:02.825Z,13.70
2017-10-18T14:47:05.492Z,13.90
2017-10-18T14:49:08.134Z,16.50
2017-10-18T14:51:11.664Z,13.47
2017-10-18T14:53:14.338Z,12.03
2017-10-18T14:55:17.023Z,14.10
2017-10-18T14:57:19.669Z,14.87
2017-10-18T14:59:23.104Z,13.07
2017-10-18T15:01:25.788Z,16.10
2017-10-18T15:03:28.434Z,13.53
2017-10-18T15:05:31.124Z,19.20
2017-10-18T15:07:33.801Z,15.33
2017-10-18T15:09:36.455Z,16.43
2017-10-18T15:11:39.121Z,16.10
2017-10-18T15:13:42.555Z,15.17
2017-10-18T15:15:45.209Z,19.93
2017-10-18T15:17:47.877Z,14.37
2017-10-18T15:19:50.520Z,19.63
2017-10-18T15:21:53.174Z,24.27
2017-10-18T15:23:55.859Z,20.30
2017-10-18T15:26:00.015Z,15.37
2017-10-18T15:28:02.681Z,16.90
2017-10-18T15:30:06.215Z,18.67
2017-10-18T15:32:08.892Z,22.33
2017-10-18T15:34:11.567Z,25.67
2017-10-18T15:36:14.249Z,15.57
2017-10-18T15:38:16.915Z,27.63
2017-10-18T15:40:19.585Z,24.10
2017-10-18T15:42:22.279Z,14.97
2017-10-18T15:44:24.947Z,18.80
2017-10-18T15:46:27.606Z,28.87
2017-10-18T15:48:30.293Z,26.33
2017-10-18T15:50:32.964Z,21.30
2017-10-18T15:52:35.614Z,30.00
2017-10-18T15:54:38.306Z,24.03
2017-10-18T15:56:40.960Z,22.60
2017-10-18T15:58:44.392Z,21.63
2017-10-18T16:00:47.160Z,22.03
2017-10-18T16:02:49.849Z,27.17
2017-10-18T16:04:52.517Z,26.37
2017-10-18T16:06:55.215Z,42.07
2017-10-18T16:08:57.879Z,28.90
2017-10-18T16:11:00.538Z,33.97
2017-10-18T16:13:03.237Z,26.70
2017-10-18T16:15:05.926Z,30.20
2017-10-18T16:17:08.586Z,21.77
2017-10-18T16:19:11.332Z,24.33
2017-10-18T16:21:14.011Z,28.33
2017-10-18T16:23:16.707Z,26.10
2017-10-18T16:25:19.385Z,32.30
2017-10-18T16:27:22.032Z,29.37
2017-10-18T16:29:25.450Z,26.87
2017-10-18T16:31:28.223Z,24.73
2017-10-18T16:33:30.899Z,26.60
2017-10-18T16:35:33.567Z,25.23
2017-10-18T16:37:36.255Z,29.40
2017-10-18T16:39:39.023Z,37.10
2017-10-18T16:41:41.687Z,29.93
2017-10-18T16:43:44.428Z,31.87
2017-10-18T16:45:47.139Z,29.67
2017-10-18T16:47:50.550Z,35.20
2017-10-18T16:49:53.280Z,34.00
2017-10-18T16:51:55.945Z,29.30
2017-10-18T16:53:58.589Z,40.93
2017-10-18T16:56:01.341Z,43.60
2017-10-18T16:58:04.023Z,39.60
2017-10-18T17:00:06.727Z,37.87
2017-10-18T17:02:09.740Z,34.47
2017-10-18T17:04:12.412Z,34.00
2017-10-18T17:06:16.284Z,30.87
2017-10-18T17:08:18.968Z,32.37
2017-10-18T17:10:21.639Z,35.10
2017-10-18T17:12:24.342Z,42.53
2017-10-18T17:14:27.083Z,42.63
2017-10-18T17:16:29.738Z,46.93
2017-10-18T17:18:33.188Z,35.60
2017-10-18T17:20:35.930Z,40.37
2017-10-18T17:22:38.584Z,41.97
2017-10-18T17:24:42.025Z,31.83
2017-10-18T17:26:44.707Z,44.00
2017-10-18T17:28:47.482Z,39.43
2017-10-18T17:30:50.191Z,41.00
2017-10-18T17:32:52.876Z,41.00
2017-10-18T17:34:56.385Z,50.77
2017-10-18T17:37:00.061Z,46.80
2017-10-18T17:39:02.748Z,38.13
2017-10-18T17:41:06.275Z,40.60
2017-10-18T17:43:09.120Z,39.63
2017-10-18T17:45:12.565Z,39.87
2017-10-18T17:47:15.288Z,41.07
2017-10-18T17:49:18.091Z,35.50
2017-10-18T17:51:20.832Z,45.50
2017-10-18T17:53:23.509Z,43.47
2017-10-18T17:55:26.299Z,38.57
2017-10-18T17:57:29.464Z,41.33
2017-10-18T17:59:32.152Z,33.60
2017-10-18T18:01:35.057Z,31.50
2017-10-18T18:03:38.919Z,32.67
2017-10-18T18:05:41.719Z,43.30
2017-10-18T18:07:44.528Z,41.67
2017-10-18T18:09:47.207Z,40.60
2017-10-18T18:11:49.897Z,44.10
2017-10-18T18:13:52.733Z,44.87
2017-10-18T18:15:56.937Z,45.87
2017-10-18T18:18:00.112Z,36.13
2017-10-18T18:20:02.814Z,38.77
2017-10-18T18:22:06.416Z,33.07
2017-10-18T18:24:09.854Z,38.80
2017-10-18T18:26:12.729Z,47.97
2017-10-18T18:28:15.734Z,38.47
2017-10-18T18:30:18.645Z,42.17
2017-10-18T18:32:21.374Z,44.23
2017-10-18T18:34:24.358Z,42.33
2017-10-18T18:36:27.141Z,37.13
2017-10-18T18:38:29.969Z,39.93
2017-10-18T18:40:33.433Z,31.67
2017-10-18T18:42:36.114Z,56.63
2017-10-18T18:44:38.996Z,38.20
2017-10-18T18:46:41.938Z,41.30
2017-10-18T18:48:44.831Z,40.97
2017-10-18T18:50:47.547Z,37.27
2017-10-18T18:52:50.258Z,37.03
2017-10-18T18:54:53.681Z,35.77
2017-10-18T18:56:56.379Z,38.50
2017-10-18T18:58:59.057Z,50.07
2017-10-18T19:01:01.729Z,43.40
2017-10-18T19:03:04.474Z,44.03
2017-10-18T19:05:07.212Z,49.20
2017-10-18T19:07:10.075Z,47.07
2017-10-18T19:09:12.790Z,38.33
2017-10-18T19:11:16.230Z,41.27
2017-10-18T19:13:18.991Z,37.60
2017-10-18T19:15:21.719Z,54.73
2017-10-18T19:17:24.431Z,38.67
2017-10-18T19:19:27.107Z,44.03
2017-10-18T19:21:29.790Z,39.40
2017-10-18T19:23:32.584Z,37.87
2017-10-18T19:25:35.249Z,42.93
2017-10-18T19:27:38.062Z,36.50
2017-10-18T19:29:40.748Z,35.50
2017-10-18T19:31:43.490Z,37.73
2017-10-18T19:33:46.177Z,39.70
2017-10-18T19:35:48.847Z,39.50
2017-10-18T19:37:51.501Z,49.13
2017-10-18T19:39:54.322Z,37.77
2017-10-18T19:41:56.984Z,41.63
2017-10-18T19:43:59.661Z,38.97
2017-10-18T19:46:02.350Z,44.83
2017-10-18T19:48:05.001Z,42.10
2017-10-18T19:50:07.663Z,41.93
2017-10-18T19:52:10.354Z,46.10
2017-10-18T19:54:13.020Z,49.83
2017-10-18T19:56:15.669Z,39.50
2017-10-18T19:58:19.300Z,40.47
2017-10-18T20:00:22.084Z,56.97
2017-10-18T20:02:24.758Z,44.27
2017-10-18T20:04:27.444Z,50.70
2017-10-18T20:06:30.121Z,57.53
2017-10-18T20:08:32.848Z,44.13
2017-10-18T20:10:35.565Z,39.00
2017-10-18T20:12:38.214Z,42.60
2017-10-18T20:14:40.870Z,46.13
2017-10-18T20:16:43.587Z,49.73
2017-10-18T20:18:46.471Z,45.80
2017-10-18T20:20:49.135Z,49.43
2017-10-18T20:22:51.827Z,43.93
2017-10-18T20:24:54.587Z,43.37
2017-10-18T20:26:57.259Z,53.73
2017-10-18T20:28:59.931Z,40.63
2017-10-18T20:31:02.604Z,53.40
2017-10-18T20:33:06.124Z,42.90
2017-10-18T20:35:08.945Z,45.63
2017-10-18T20:37:11.632Z,39.57
2017-10-18T20:39:14.291Z,49.50
2017-10-18T20:41:17.048Z,57.53
2017-10-18T20:43:19.720Z,50.47
2017-10-18T20:45:22.373Z,44.17
2017-10-18T20:47:25.062Z,47.50
2017-10-18T20:49:27.713Z,47.30
2017-10-18T20:51:31.131Z,53.07
2017-10-18T20:53:33.807Z,44.13
2017-10-18T20:55:36.480Z,56.37
2017-10-18T20:57:39.141Z,50.70
2017-10-18T21:01:51.678Z,41.77
2017-10-18T21:03:54.365Z,45.33
2017-10-18T21:05:57.041Z,41.40
2017-10-18T21:08:00.016Z,45.10
2017-10-18T21:10:02.844Z,41.33
2017-10-18T21:12:05.507Z,42.23
2017-10-18T21:14:08.168Z,39.97
2017-10-18T21:16:10.924Z,42.47
2017-10-18T21:18:13.706Z,58.33
2017-10-18T21:20:16.485Z,40.70
2017-10-18T21:22:19.175Z,49.73
2017-10-18T21:24:21.839Z,38.67
2017-10-18T21:26:24.500Z,42.53
2017-10-18T21:28:27.190Z,36.60
2017-10-18T21:30:29.971Z,35.07
2017-10-18T21:32:32.634Z,35.33
2017-10-18T21:34:35.355Z,34.60
2017-10-18T21:36:38.021Z,41.93
2017-10-18T21:38:40.699Z,39.43
2017-10-18T21:40:43.395Z,43.00
2017-10-18T21:42:46.125Z,40.27
2017-10-18T21:44:48.804Z,34.47
2017-10-18T21:46:51.487Z,32.47
2017-10-18T21:48:54.166Z,39.03
2017-10-18T21:50:56.823Z,29.60
2017-10-18T21:52:59.512Z,37.23
2017-10-18T21:55:02.161Z,38.30
2017-10-18T21:57:04.826Z,33.23
2017-10-18T21:59:08.280Z,35.30
2017-10-18T22:01:10.951Z,39.70
2017-10-18T22:03:13.606Z,34.83
2017-10-18T22:05:16.313Z,38.40
2017-10-18T22:07:18.972Z,34.13
2017-10-18T22:09:21.633Z,39.10
2017-10-18T22:11:24.338Z,39.77
2017-10-18T22:13:27.095Z,36.13
2017-10-18T22:15:29.768Z,35.23
2017-10-18T22:17:32.541Z,34.60
2017-10-18T22:19:35.222Z,36.40
2017-10-18T22:21:37.889Z,40.33
2017-10-18T22:23:40.575Z,38.97
2017-10-18T22:25:43.225Z,41.97
2017-10-18T22:27:46.660Z,38.37
2017-10-18T22:29:49.417Z,30.83
2017-10-18T22:31:52.079Z,40.33
2017-10-18T22:33:54.721Z,35.00
2017-10-18T22:35:57.403Z,33.83
2017-10-18T22:38:00.335Z,33.47
2017-10-18T22:40:03.022Z,31.83
2017-10-18T22:42:05.709Z,32.10
2017-10-18T22:44:08.365Z,31.77
2017-10-18T22:46:11.009Z,41.13
2017-10-18T22:48:14.469Z,33.20
2017-10-18T22:50:17.114Z,37.60
2017-10-18T22:52:19.865Z,36.50
2017-10-18T22:54:22.556Z,32.77
2017-10-18T22:56:25.208Z,36.90
2017-10-18T22:58:28.664Z,38.73
2017-10-18T23:00:31.372Z,35.83
2017-10-18T23:02:34.804Z,34.87
2017-10-18T23:04:37.574Z,40.70
2017-10-18T23:06:40.354Z,36.90
2017-10-18T23:08:43.023Z,39.90
2017-10-18T23:10:45.687Z,40.60
2017-10-18T23:12:48.375Z,35.13
2017-10-18T23:14:51.051Z,33.57
2017-10-18T23:16:53.861Z,36.83
2017-10-18T23:18:56.525Z,40.00
2017-10-18T23:20:59.183Z,48.90
2017-10-18T23:23:01.878Z,37.90
2017-10-18T23:25:04.579Z,40.43
2017-10-18T23:27:07.290Z,38.60
2017-10-18T23:29:10.749Z,34.90
2017-10-18T23:31:13.419Z,40.53
2017-10-18T23:33:16.091Z,38.63
2017-10-18T23:35:18.783Z,43.30
2017-10-18T23:37:21.460Z,46.80
2017-10-18T23:39:24.347Z,35.47
2017-10-18T23:41:27.019Z,41.93
2017-10-18T23:43:29.708Z,37.50
2017-10-18T23:45:32.408Z,39.63
2017-10-18T23:47:35.085Z,39.90
2017-10-18T23:49:37.747Z,42.80
2017-10-18T23:51:41.211Z,40.63
2017-10-18T23:53:43.953Z,36.03
2017-10-18T23:55:46.618Z,38.63
2017-10-18T23:57:49.436Z,42.37
2017-10-18T23:59:52.113Z,37.33
